sensor_id;sensor_type;location;lat;lon;timestamp;temperature;humidity
14755;DHT22;7469;50.906;6.952;2022-07-01T00:02:25;15.40;99.90
14755;DHT22;7469;50.906;6.952;2022-07-01T00:04:55;15.40;99.90
14755;DHT22;7469;50.906;6.952;2022-07-01T00:07:23;15.40;99.90
14755;DHT22;7469;50.906;6.952;2022-07-01T00:09:51;15.40;99.90
14755;DHT22;7469;50.906;6.952;2022-07-01T00:12:19;15.40;99.90
14755;DHT22;7469;50.906;6.952;2022-07-01T00:14:47;15.40;99.90
14755;DHT22;7469;50.906;6.952;2022-07-01T00:17:15;15.40;99.90
14755;DHT22;7469;50.906;6.952;2022-07-01T00:19:43;15.40;99.90
14755;DHT22;7469;50.906;6.952;2022-07-01T00:22:13;15.40;99.90
14755;DHT22;7469;50.906;6.952;2022-07-01T00:24:41;15.40;99.90
14755;DHT22;7469;50.906;6.952;2022-07-01T00:27:09;15.40;99.90
14755;DHT22;7469;50.906;6.952;2022-07-01T00:29:37;15.40;99.90
14755;DHT22;7469;50.906;6.952;2022-07-01T00:32:06;15.40;99.90
14755;DHT22;7469;50.906;6.952;2022-07-01T00:34:34;15.40;99.90
14755;DHT22;7469;50.906;6.952;2022-07-01T00:37:02;15.40;99.90
14755;DHT22;7469;50.906;6.952;2022-07-01T00:39:31;15.30;99.90
14755;DHT22;7469;50.906;6.952;2022-07-01T00:42:02;15.40;99.90
14755;DHT22;7469;50.906;6.952;2022-07-01T00:44:31;15.30;99.90
14755;DHT22;7469;50.906;6.952;2022-07-01T00:47:02;15.30;99.90
14755;DHT22;7469;50.906;6.952;2022-07-01T00:49:31;15.30;99.90
14755;DHT22;7469;50.906;6.952;2022-07-01T00:52:00;15.30;99.90
14755;DHT22;7469;50.906;6.952;2022-07-01T00:54:28;15.30;99.90
14755;DHT22;7469;50.906;6.952;2022-07-01T00:56:59;15.30;99.90
14755;DHT22;7469;50.906;6.952;2022-07-01T00:59:27;15.30;99.90
14755;DHT22;7469;50.906;6.952;2022-07-01T01:01:58;15.30;99.90
14755;DHT22;7469;50.906;6.952;2022-07-01T01:04:26;15.30;99.90
14755;DHT22;7469;50.906;6.952;2022-07-01T01:06:54;15.30;99.90
14755;DHT22;7469;50.906;6.952;2022-07-01T01:09:22;15.30;99.90
14755;DHT22;7469;50.906;6.952;2022-07-01T01:11:50;15.30;99.90
14755;DHT22;7469;50.906;6.952;2022-07-01T01:14:20;15.30;99.90
14755;DHT22;7469;50.906;6.952;2022-07-01T01:16:48;15.30;99.90
14755;DHT22;7469;50.906;6.952;2022-07-01T01:19:16;15.30;99.90
14755;DHT22;7469;50.906;6.952;2022-07-01T01:21:45;15.30;99.90
14755;DHT22;7469;50.906;6.952;2022-07-01T01:24:13;15.30;99.90
14755;DHT22;7469;50.906;6.952;2022-07-01T01:26:41;15.30;99.90
14755;DHT22;7469;50.906;6.952;2022-07-01T01:29:09;15.30;99.90
14755;DHT22;7469;50.906;6.952;2022-07-01T01:31:37;15.30;99.90
14755;DHT22;7469;50.906;6.952;2022-07-01T01:34:05;15.30;99.90
14755;DHT22;7469;50.906;6.952;2022-07-01T01:36:33;15.40;99.90
14755;DHT22;7469;50.906;6.952;2022-07-01T01:39:03;15.30;99.90
14755;DHT22;7469;50.906;6.952;2022-07-01T01:41:34;15.30;99.90
14755;DHT22;7469;50.906;6.952;2022-07-01T01:44:02;15.30;99.90
14755;DHT22;7469;50.906;6.952;2022-07-01T01:46:30;15.30;99.90
14755;DHT22;7469;50.906;6.952;2022-07-01T01:48:58;15.30;99.90
14755;DHT22;7469;50.906;6.952;2022-07-01T01:51:26;15.30;99.90
14755;DHT22;7469;50.906;6.952;2022-07-01T01:53:55;15.30;99.90
14755;DHT22;7469;50.906;6.952;2022-07-01T01:56:26;15.20;99.90
14755;DHT22;7469;50.906;6.952;2022-07-01T01:58:54;15.20;99.90
14755;DHT22;7469;50.906;6.952;2022-07-01T02:01:22;15.20;99.90
14755;DHT22;7469;50.906;6.952;2022-07-01T02:03:51;15.20;99.90
14755;DHT22;7469;50.906;6.952;2022-07-01T02:06:21;15.20;99.90
14755;DHT22;7469;50.906;6.952;2022-07-01T02:08:49;15.10;99.90
14755;DHT22;7469;50.906;6.952;2022-07-01T02:11:17;15.10;99.90
14755;DHT22;7469;50.906;6.952;2022-07-01T02:13:46;15.10;99.90
14755;DHT22;7469;50.906;6.952;2022-07-01T02:16:14;15.00;99.90
14755;DHT22;7469;50.906;6.952;2022-07-01T02:18:42;15.00;99.90
14755;DHT22;7469;50.906;6.952;2022-07-01T02:21:10;15.00;99.90
14755;DHT22;7469;50.906;6.952;2022-07-01T02:23:38;15.00;99.90
14755;DHT22;7469;50.906;6.952;2022-07-01T02:26:07;15.00;99.90
14755;DHT22;7469;50.906;6.952;2022-07-01T02:28:35;15.00;99.90
14755;DHT22;7469;50.906;6.952;2022-07-01T02:31:04;15.00;99.90
14755;DHT22;7469;50.906;6.952;2022-07-01T02:33:32;15.00;99.90
14755;DHT22;7469;50.906;6.952;2022-07-01T02:36:01;15.00;99.90
14755;DHT22;7469;50.906;6.952;2022-07-01T02:38:29;15.00;99.90
14755;DHT22;7469;50.906;6.952;2022-07-01T02:40:57;15.00;99.90
14755;DHT22;7469;50.906;6.952;2022-07-01T02:43:25;14.90;99.90
14755;DHT22;7469;50.906;6.952;2022-07-01T02:45:56;14.90;99.90
14755;DHT22;7469;50.906;6.952;2022-07-01T02:48:26;14.90;99.90
14755;DHT22;7469;50.906;6.952;2022-07-01T02:50:55;14.90;99.90
14755;DHT22;7469;50.906;6.952;2022-07-01T02:53:23;14.80;99.90
14755;DHT22;7469;50.906;6.952;2022-07-01T02:55:51;14.80;99.90
14755;DHT22;7469;50.906;6.952;2022-07-01T02:58:19;14.80;99.90
14755;DHT22;7469;50.906;6.952;2022-07-01T03:00:47;14.80;99.90
14755;DHT22;7469;50.906;6.952;2022-07-01T03:03:15;14.70;99.90
14755;DHT22;7469;50.906;6.952;2022-07-01T03:05:44;14.70;99.90
14755;DHT22;7469;50.906;6.952;2022-07-01T03:08:14;14.80;99.90
14755;DHT22;7469;50.906;6.952;2022-07-01T03:10:42;14.80;99.90
14755;DHT22;7469;50.906;6.952;2022-07-01T03:13:09;14.80;99.90
14755;DHT22;7469;50.906;6.952;2022-07-01T03:15:37;14.80;99.90
14755;DHT22;7469;50.906;6.952;2022-07-01T03:18:05;14.80;99.90
14755;DHT22;7469;50.906;6.952;2022-07-01T03:20:33;14.90;99.90
14755;DHT22;7469;50.906;6.952;2022-07-01T03:23:05;14.90;99.90
14755;DHT22;7469;50.906;6.952;2022-07-01T03:25:33;14.90;99.90
14755;DHT22;7469;50.906;6.952;2022-07-01T03:28:04;14.90;99.90
14755;DHT22;7469;50.906;6.952;2022-07-01T03:30:32;14.90;99.90
14755;DHT22;7469;50.906;6.952;2022-07-01T03:33:01;14.90;99.90
14755;DHT22;7469;50.906;6.952;2022-07-01T03:35:29;15.00;99.90
14755;DHT22;7469;50.906;6.952;2022-07-01T03:38:08;15.00;99.90
14755;DHT22;7469;50.906;6.952;2022-07-01T03:40:36;15.00;99.90
14755;DHT22;7469;50.906;6.952;2022-07-01T03:43:05;15.00;99.90
14755;DHT22;7469;50.906;6.952;2022-07-01T03:45:33;15.00;99.90
14755;DHT22;7469;50.906;6.952;2022-07-01T03:48:01;15.00;99.90
14755;DHT22;7469;50.906;6.952;2022-07-01T03:50:29;15.00;99.90
14755;DHT22;7469;50.906;6.952;2022-07-01T03:52:57;15.00;99.90
14755;DHT22;7469;50.906;6.952;2022-07-01T03:55:44;15.10;99.90
14755;DHT22;7469;50.906;6.952;2022-07-01T03:58:12;15.10;99.90
14755;DHT22;7469;50.906;6.952;2022-07-01T04:00:40;15.10;99.90
14755;DHT22;7469;50.906;6.952;2022-07-01T04:03:08;15.10;99.90
14755;DHT22;7469;50.906;6.952;2022-07-01T04:05:37;15.10;99.90
14755;DHT22;7469;50.906;6.952;2022-07-01T04:08:07;15.10;99.90
14755;DHT22;7469;50.906;6.952;2022-07-01T04:10:39;15.10;99.90
14755;DHT22;7469;50.906;6.952;2022-07-01T04:13:09;15.10;99.90
14755;DHT22;7469;50.906;6.952;2022-07-01T04:15:58;15.10;99.90
14755;DHT22;7469;50.906;6.952;2022-07-01T04:18:27;15.00;99.90
14755;DHT22;7469;50.906;6.952;2022-07-01T04:20:55;15.00;99.90
14755;DHT22;7469;50.906;6.952;2022-07-01T04:23:40;15.00;99.90
14755;DHT22;7469;50.906;6.952;2022-07-01T04:26:08;15.00;99.90
14755;DHT22;7469;50.906;6.952;2022-07-01T04:28:58;15.00;99.90
14755;DHT22;7469;50.906;6.952;2022-07-01T04:31:26;15.00;99.90
14755;DHT22;7469;50.906;6.952;2022-07-01T04:33:54;15.10;99.90
14755;DHT22;7469;50.906;6.952;2022-07-01T04:36:22;15.10;99.90
14755;DHT22;7469;50.906;6.952;2022-07-01T04:38:50;15.10;99.90
14755;DHT22;7469;50.906;6.952;2022-07-01T04:41:18;15.10;99.90
14755;DHT22;7469;50.906;6.952;2022-07-01T04:44:05;15.10;99.90
14755;DHT22;7469;50.906;6.952;2022-07-01T04:46:34;15.10;99.90
14755;DHT22;7469;50.906;6.952;2022-07-01T04:49:02;15.10;99.90
14755;DHT22;7469;50.906;6.952;2022-07-01T04:51:30;15.10;99.90
14755;DHT22;7469;50.906;6.952;2022-07-01T04:54:01;15.10;99.90
14755;DHT22;7469;50.906;6.952;2022-07-01T04:56:29;15.10;99.90
14755;DHT22;7469;50.906;6.952;2022-07-01T04:58:57;15.10;99.90
14755;DHT22;7469;50.906;6.952;2022-07-01T05:01:27;15.10;99.90
14755;DHT22;7469;50.906;6.952;2022-07-01T05:03:56;15.10;99.90
14755;DHT22;7469;50.906;6.952;2022-07-01T05:06:25;15.10;99.90
14755;DHT22;7469;50.906;6.952;2022-07-01T05:08:53;15.20;99.90
14755;DHT22;7469;50.906;6.952;2022-07-01T05:11:21;15.20;99.90
14755;DHT22;7469;50.906;6.952;2022-07-01T05:13:49;15.20;99.90
14755;DHT22;7469;50.906;6.952;2022-07-01T05:16:17;15.30;99.90
14755;DHT22;7469;50.906;6.952;2022-07-01T05:18:47;15.40;99.90
14755;DHT22;7469;50.906;6.952;2022-07-01T05:21:32;15.40;99.90
14755;DHT22;7469;50.906;6.952;2022-07-01T05:24:18;15.50;99.90
14755;DHT22;7469;50.906;6.952;2022-07-01T05:26:46;15.60;99.90
14755;DHT22;7469;50.906;6.952;2022-07-01T05:29:14;15.70;99.90
14755;DHT22;7469;50.906;6.952;2022-07-01T05:31:42;15.80;99.90
14755;DHT22;7469;50.906;6.952;2022-07-01T05:34:12;15.80;99.90
14755;DHT22;7469;50.906;6.952;2022-07-01T05:36:41;15.80;99.90
14755;DHT22;7469;50.906;6.952;2022-07-01T05:39:09;15.80;99.90
14755;DHT22;7469;50.906;6.952;2022-07-01T05:41:38;15.80;99.90
14755;DHT22;7469;50.906;6.952;2022-07-01T05:44:06;15.80;99.90
14755;DHT22;7469;50.906;6.952;2022-07-01T05:46:34;15.80;99.90
14755;DHT22;7469;50.906;6.952;2022-07-01T05:49:03;15.80;99.90
14755;DHT22;7469;50.906;6.952;2022-07-01T05:51:35;15.80;99.90
14755;DHT22;7469;50.906;6.952;2022-07-01T05:54:03;15.90;99.90
14755;DHT22;7469;50.906;6.952;2022-07-01T05:56:31;16.00;99.90
14755;DHT22;7469;50.906;6.952;2022-07-01T05:58:59;16.10;99.90
14755;DHT22;7469;50.906;6.952;2022-07-01T06:01:27;16.20;99.90
14755;DHT22;7469;50.906;6.952;2022-07-01T06:03:55;16.20;99.90
14755;DHT22;7469;50.906;6.952;2022-07-01T06:06:23;16.30;99.90
14755;DHT22;7469;50.906;6.952;2022-07-01T06:08:52;16.50;99.90
14755;DHT22;7469;50.906;6.952;2022-07-01T06:11:20;16.60;99.90
14755;DHT22;7469;50.906;6.952;2022-07-01T06:13:48;16.70;99.90
14755;DHT22;7469;50.906;6.952;2022-07-01T06:16:16;16.80;99.90
14755;DHT22;7469;50.906;6.952;2022-07-01T06:18:44;16.90;99.90
14755;DHT22;7469;50.906;6.952;2022-07-01T06:21:12;17.00;99.90
14755;DHT22;7469;50.906;6.952;2022-07-01T06:23:41;17.20;99.90
14755;DHT22;7469;50.906;6.952;2022-07-01T06:26:11;17.40;99.90
14755;DHT22;7469;50.906;6.952;2022-07-01T06:28:39;17.60;99.90
14755;DHT22;7469;50.906;6.952;2022-07-01T06:31:07;17.60;99.90
14755;DHT22;7469;50.906;6.952;2022-07-01T06:33:35;17.70;99.90
14755;DHT22;7469;50.906;6.952;2022-07-01T06:36:03;17.90;99.90
14755;DHT22;7469;50.906;6.952;2022-07-01T06:38:31;18.00;99.90
14755;DHT22;7469;50.906;6.952;2022-07-01T06:40:59;18.20;99.90
14755;DHT22;7469;50.906;6.952;2022-07-01T06:43:46;18.30;99.90
14755;DHT22;7469;50.906;6.952;2022-07-01T06:46:14;18.50;99.90
14755;DHT22;7469;50.906;6.952;2022-07-01T06:48:42;18.70;99.90
14755;DHT22;7469;50.906;6.952;2022-07-01T06:51:10;18.80;99.90
14755;DHT22;7469;50.906;6.952;2022-07-01T06:53:38;18.80;99.90
14755;DHT22;7469;50.906;6.952;2022-07-01T06:56:06;18.80;99.90
14755;DHT22;7469;50.906;6.952;2022-07-01T06:58:34;18.70;99.90
14755;DHT22;7469;50.906;6.952;2022-07-01T07:01:03;18.70;99.90
14755;DHT22;7469;50.906;6.952;2022-07-01T07:03:32;18.80;99.90
14755;DHT22;7469;50.906;6.952;2022-07-01T07:06:00;18.90;99.90
14755;DHT22;7469;50.906;6.952;2022-07-01T07:08:29;19.00;99.90
14755;DHT22;7469;50.906;6.952;2022-07-01T07:10:58;18.90;99.90
14755;DHT22;7469;50.906;6.952;2022-07-01T07:13:26;18.80;99.90
14755;DHT22;7469;50.906;6.952;2022-07-01T07:15:54;18.60;99.90
14755;DHT22;7469;50.906;6.952;2022-07-01T07:18:24;18.40;99.90
14755;DHT22;7469;50.906;6.952;2022-07-01T07:20:52;18.30;99.90
14755;DHT22;7469;50.906;6.952;2022-07-01T07:23:25;18.30;99.90
14755;DHT22;7469;50.906;6.952;2022-07-01T07:25:53;18.40;99.90
14755;DHT22;7469;50.906;6.952;2022-07-01T07:28:21;18.60;99.90
14755;DHT22;7469;50.906;6.952;2022-07-01T07:30:50;18.70;99.90
14755;DHT22;7469;50.906;6.952;2022-07-01T07:33:18;18.70;99.90
14755;DHT22;7469;50.906;6.952;2022-07-01T07:35:47;18.70;99.90
14755;DHT22;7469;50.906;6.952;2022-07-01T07:38:15;18.70;99.90
14755;DHT22;7469;50.906;6.952;2022-07-01T07:40:43;18.80;99.90
14755;DHT22;7469;50.906;6.952;2022-07-01T07:43:11;18.90;99.90
14755;DHT22;7469;50.906;6.952;2022-07-01T07:45:39;19.10;99.90
14755;DHT22;7469;50.906;6.952;2022-07-01T07:48:07;19.40;99.90
14755;DHT22;7469;50.906;6.952;2022-07-01T07:50:36;19.60;99.90
14755;DHT22;7469;50.906;6.952;2022-07-01T07:53:05;19.80;99.90
14755;DHT22;7469;50.906;6.952;2022-07-01T07:55:34;19.90;99.90
14755;DHT22;7469;50.906;6.952;2022-07-01T07:58:02;20.00;99.90
14755;DHT22;7469;50.906;6.952;2022-07-01T08:00:32;20.10;99.90
14755;DHT22;7469;50.906;6.952;2022-07-01T08:03:06;20.20;99.90
14755;DHT22;7469;50.906;6.952;2022-07-01T08:05:34;20.30;99.90
14755;DHT22;7469;50.906;6.952;2022-07-01T08:08:02;20.20;99.90
14755;DHT22;7469;50.906;6.952;2022-07-01T08:10:32;20.10;99.90
14755;DHT22;7469;50.906;6.952;2022-07-01T08:12:59;20.20;99.90
14755;DHT22;7469;50.906;6.952;2022-07-01T08:15:31;20.20;99.90
14755;DHT22;7469;50.906;6.952;2022-07-01T08:17:59;20.40;99.90
14755;DHT22;7469;50.906;6.952;2022-07-01T08:20:27;20.60;99.90
14755;DHT22;7469;50.906;6.952;2022-07-01T08:22:55;20.90;99.90
14755;DHT22;7469;50.906;6.952;2022-07-01T08:25:23;21.10;99.90
14755;DHT22;7469;50.906;6.952;2022-07-01T08:27:52;21.20;99.90
14755;DHT22;7469;50.906;6.952;2022-07-01T08:30:20;21.30;99.90
14755;DHT22;7469;50.906;6.952;2022-07-01T08:32:48;21.30;99.90
14755;DHT22;7469;50.906;6.952;2022-07-01T08:35:17;21.30;99.90
14755;DHT22;7469;50.906;6.952;2022-07-01T08:37:45;21.20;99.90
14755;DHT22;7469;50.906;6.952;2022-07-01T08:40:13;21.10;99.90
14755;DHT22;7469;50.906;6.952;2022-07-01T08:42:41;21.20;99.90
14755;DHT22;7469;50.906;6.952;2022-07-01T08:45:11;21.30;99.90
14755;DHT22;7469;50.906;6.952;2022-07-01T08:47:51;21.50;99.90
14755;DHT22;7469;50.906;6.952;2022-07-01T08:50:19;21.50;99.90
14755;DHT22;7469;50.906;6.952;2022-07-01T08:52:49;21.70;99.90
14755;DHT22;7469;50.906;6.952;2022-07-01T08:55:18;21.80;99.90
14755;DHT22;7469;50.906;6.952;2022-07-01T08:57:46;22.00;99.90
14755;DHT22;7469;50.906;6.952;2022-07-01T09:00:16;22.10;99.90
14755;DHT22;7469;50.906;6.952;2022-07-01T09:02:50;22.40;99.90
14755;DHT22;7469;50.906;6.952;2022-07-01T09:05:18;22.80;99.90
14755;DHT22;7469;50.906;6.952;2022-07-01T09:07:47;22.90;99.90
14755;DHT22;7469;50.906;6.952;2022-07-01T09:10:18;23.10;99.90
14755;DHT22;7469;50.906;6.952;2022-07-01T09:12:47;23.10;99.90
14755;DHT22;7469;50.906;6.952;2022-07-01T09:15:21;23.30;99.90
14755;DHT22;7469;50.906;6.952;2022-07-01T09:17:52;23.10;99.90
14755;DHT22;7469;50.906;6.952;2022-07-01T09:20:24;22.90;99.90
14755;DHT22;7469;50.906;6.952;2022-07-01T09:23:00;22.90;99.90
14755;DHT22;7469;50.906;6.952;2022-07-01T09:25:30;23.00;99.90
14755;DHT22;7469;50.906;6.952;2022-07-01T09:28:06;23.50;99.90
14755;DHT22;7469;50.906;6.952;2022-07-01T09:30:37;24.10;99.90
14755;DHT22;7469;50.906;6.952;2022-07-01T09:33:13;24.40;99.90
14755;DHT22;7469;50.906;6.952;2022-07-01T09:35:43;24.60;99.90
14755;DHT22;7469;50.906;6.952;2022-07-01T09:38:13;25.30;99.60
14755;DHT22;7469;50.906;6.952;2022-07-01T09:41:00;26.00;97.80
14755;DHT22;7469;50.906;6.952;2022-07-01T09:43:29;26.30;96.20
14755;DHT22;7469;50.906;6.952;2022-07-01T09:46:00;26.30;95.30
14755;DHT22;7469;50.906;6.952;2022-07-01T09:48:43;27.00;93.90
14755;DHT22;7469;50.906;6.952;2022-07-01T09:51:12;27.30;91.70
14755;DHT22;7469;50.906;6.952;2022-07-01T09:53:42;26.80;91.10
14755;DHT22;7469;50.906;6.952;2022-07-01T09:56:10;26.40;90.90
14755;DHT22;7469;50.906;6.952;2022-07-01T09:58:38;28.00;90.00
14755;DHT22;7469;50.906;6.952;2022-07-01T10:01:12;30.70;83.40
14755;DHT22;7469;50.906;6.952;2022-07-01T10:03:41;33.20;66.60
14755;DHT22;7469;50.906;6.952;2022-07-01T10:06:24;33.20;56.60
14755;DHT22;7469;50.906;6.952;2022-07-01T10:09:06;33.30;54.30
14755;DHT22;7469;50.906;6.952;2022-07-01T10:14:41;36.10;45.20
14755;DHT22;7469;50.906;6.952;2022-07-01T10:17:26;37.50;42.10
14755;DHT22;7469;50.906;6.952;2022-07-01T10:19:54;38.50;39.30
14755;DHT22;7469;50.906;6.952;2022-07-01T10:22:28;38.90;37.30
14755;DHT22;7469;50.906;6.952;2022-07-01T10:24:58;39.50;34.70
14755;DHT22;7469;50.906;6.952;2022-07-01T10:28:11;40.00;33.00
14755;DHT22;7469;50.906;6.952;2022-07-01T10:30:48;38.80;32.80
14755;DHT22;7469;50.906;6.952;2022-07-01T10:33:32;37.90;33.10
14755;DHT22;7469;50.906;6.952;2022-07-01T10:36:05;36.50;33.60
14755;DHT22;7469;50.906;6.952;2022-07-01T10:38:34;35.70;34.30
14755;DHT22;7469;50.906;6.952;2022-07-01T10:41:04;35.60;34.20
14755;DHT22;7469;50.906;6.952;2022-07-01T10:43:37;36.20;33.50
14755;DHT22;7469;50.906;6.952;2022-07-01T10:46:08;36.10;32.80
14755;DHT22;7469;50.906;6.952;2022-07-01T10:48:38;35.80;32.80
14755;DHT22;7469;50.906;6.952;2022-07-01T10:51:06;34.60;33.90
14755;DHT22;7469;50.906;6.952;2022-07-01T10:53:51;33.10;35.70
14755;DHT22;7469;50.906;6.952;2022-07-01T10:56:37;31.70;38.00
14755;DHT22;7469;50.906;6.952;2022-07-01T10:59:06;32.30;38.30
14755;DHT22;7469;50.906;6.952;2022-07-01T11:01:34;32.20;38.30
14755;DHT22;7469;50.906;6.952;2022-07-01T11:04:05;31.40;39.00
14755;DHT22;7469;50.906;6.952;2022-07-01T11:06:33;30.90;39.80
14755;DHT22;7469;50.906;6.952;2022-07-01T11:09:05;30.90;40.50
14755;DHT22;7469;50.906;6.952;2022-07-01T11:11:33;30.50;40.60
14755;DHT22;7469;50.906;6.952;2022-07-01T11:14:01;30.30;41.00
14755;DHT22;7469;50.906;6.952;2022-07-01T11:16:30;30.30;40.30
14755;DHT22;7469;50.906;6.952;2022-07-01T11:18:58;29.70;40.60
14755;DHT22;7469;50.906;6.952;2022-07-01T11:21:27;29.20;41.20
14755;DHT22;7469;50.906;6.952;2022-07-01T11:23:55;29.00;42.00
14755;DHT22;7469;50.906;6.952;2022-07-01T11:26:24;28.80;41.90
14755;DHT22;7469;50.906;6.952;2022-07-01T11:28:52;28.70;42.30
14755;DHT22;7469;50.906;6.952;2022-07-01T11:31:29;28.50;42.40
14755;DHT22;7469;50.906;6.952;2022-07-01T11:33:57;28.20;43.10
14755;DHT22;7469;50.906;6.952;2022-07-01T11:36:27;27.90;44.00
14755;DHT22;7469;50.906;6.952;2022-07-01T11:39:12;27.70;44.20
14755;DHT22;7469;50.906;6.952;2022-07-01T11:41:54;27.30;44.20
14755;DHT22;7469;50.906;6.952;2022-07-01T11:44:30;27.10;44.30
14755;DHT22;7469;50.906;6.952;2022-07-01T11:46:59;26.80;45.00
14755;DHT22;7469;50.906;6.952;2022-07-01T11:49:27;26.50;45.70
14755;DHT22;7469;50.906;6.952;2022-07-01T11:51:59;26.10;46.60
14755;DHT22;7469;50.906;6.952;2022-07-01T11:54:28;25.70;47.00
14755;DHT22;7469;50.906;6.952;2022-07-01T11:57:08;25.20;47.80
14755;DHT22;7469;50.906;6.952;2022-07-01T11:59:36;25.00;48.70
14755;DHT22;7469;50.906;6.952;2022-07-01T12:02:08;24.80;49.20
14755;DHT22;7469;50.906;6.952;2022-07-01T12:04:38;24.80;49.50
14755;DHT22;7469;50.906;6.952;2022-07-01T12:07:08;24.80;49.50
14755;DHT22;7469;50.906;6.952;2022-07-01T12:09:37;24.90;49.70
14755;DHT22;7469;50.906;6.952;2022-07-01T12:12:07;25.00;49.80
14755;DHT22;7469;50.906;6.952;2022-07-01T12:14:49;24.90;49.80
14755;DHT22;7469;50.906;6.952;2022-07-01T12:17:18;25.00;49.60
14755;DHT22;7469;50.906;6.952;2022-07-01T12:19:47;25.10;49.20
14755;DHT22;7469;50.906;6.952;2022-07-01T12:22:18;25.30;48.90
14755;DHT22;7469;50.906;6.952;2022-07-01T12:24:47;25.50;48.60
14755;DHT22;7469;50.906;6.952;2022-07-01T12:27:16;25.60;48.30
14755;DHT22;7469;50.906;6.952;2022-07-01T12:29:53;25.60;48.10
14755;DHT22;7469;50.906;6.952;2022-07-01T12:32:22;25.70;48.00
14755;DHT22;7469;50.906;6.952;2022-07-01T12:34:53;25.60;47.30
14755;DHT22;7469;50.906;6.952;2022-07-01T12:37:29;25.50;47.10
14755;DHT22;7469;50.906;6.952;2022-07-01T12:39:59;25.50;46.60
14755;DHT22;7469;50.906;6.952;2022-07-01T12:42:29;25.60;46.40
14755;DHT22;7469;50.906;6.952;2022-07-01T12:44:59;25.90;45.80
14755;DHT22;7469;50.906;6.952;2022-07-01T12:47:29;26.10;45.10
14755;DHT22;7469;50.906;6.952;2022-07-01T12:50:15;26.30;45.40
14755;DHT22;7469;50.906;6.952;2022-07-01T12:52:57;26.30;44.70
14755;DHT22;7469;50.906;6.952;2022-07-01T12:55:25;26.00;44.90
14755;DHT22;7469;50.906;6.952;2022-07-01T12:57:55;25.80;45.70
14755;DHT22;7469;50.906;6.952;2022-07-01T13:00:25;25.80;45.60
14755;DHT22;7469;50.906;6.952;2022-07-01T13:02:55;25.60;46.10
14755;DHT22;7469;50.906;6.952;2022-07-01T13:05:24;25.50;46.20
14755;DHT22;7469;50.906;6.952;2022-07-01T13:07:53;25.60;46.50
14755;DHT22;7469;50.906;6.952;2022-07-01T13:10:22;25.90;46.30
14755;DHT22;7469;50.906;6.952;2022-07-01T13:12:50;26.00;45.60
14755;DHT22;7469;50.906;6.952;2022-07-01T13:15:19;26.20;44.80
14755;DHT22;7469;50.906;6.952;2022-07-01T13:17:48;26.20;44.50
14755;DHT22;7469;50.906;6.952;2022-07-01T13:20:16;26.20;44.60
14755;DHT22;7469;50.906;6.952;2022-07-01T13:22:45;26.30;45.20
14755;DHT22;7469;50.906;6.952;2022-07-01T13:25:15;26.40;44.80
14755;DHT22;7469;50.906;6.952;2022-07-01T13:27:43;26.60;44.50
14755;DHT22;7469;50.906;6.952;2022-07-01T13:30:12;26.50;44.40
14755;DHT22;7469;50.906;6.952;2022-07-01T13:32:40;26.50;43.40
14755;DHT22;7469;50.906;6.952;2022-07-01T13:35:10;26.40;44.00
14755;DHT22;7469;50.906;6.952;2022-07-01T13:37:38;26.30;44.60
14755;DHT22;7469;50.906;6.952;2022-07-01T13:40:08;26.40;44.50
14755;DHT22;7469;50.906;6.952;2022-07-01T13:42:38;26.40;44.70
14755;DHT22;7469;50.906;6.952;2022-07-01T13:45:06;26.60;45.10
14755;DHT22;7469;50.906;6.952;2022-07-01T13:47:35;26.90;44.90
14755;DHT22;7469;50.906;6.952;2022-07-01T13:50:03;27.00;44.20
14755;DHT22;7469;50.906;6.952;2022-07-01T13:52:32;27.00;42.70
14755;DHT22;7469;50.906;6.952;2022-07-01T13:54:59;26.90;43.50
14755;DHT22;7469;50.906;6.952;2022-07-01T13:57:28;26.90;43.20
14755;DHT22;7469;50.906;6.952;2022-07-01T13:59:57;26.80;43.40
14755;DHT22;7469;50.906;6.952;2022-07-01T14:02:26;26.70;43.60
14755;DHT22;7469;50.906;6.952;2022-07-01T14:04:54;26.60;43.70
14755;DHT22;7469;50.906;6.952;2022-07-01T14:07:22;26.70;44.00
14755;DHT22;7469;50.906;6.952;2022-07-01T14:09:50;26.60;43.90
14755;DHT22;7469;50.906;6.952;2022-07-01T14:12:18;26.60;44.00
14755;DHT22;7469;50.906;6.952;2022-07-01T14:14:54;26.70;43.40
14755;DHT22;7469;50.906;6.952;2022-07-01T14:17:24;27.00;43.60
14755;DHT22;7469;50.906;6.952;2022-07-01T14:19:52;27.00;43.60
14755;DHT22;7469;50.906;6.952;2022-07-01T14:22:22;27.00;43.50
14755;DHT22;7469;50.906;6.952;2022-07-01T14:24:50;26.80;42.70
14755;DHT22;7469;50.906;6.952;2022-07-01T14:27:18;26.60;42.90
14755;DHT22;7469;50.906;6.952;2022-07-01T14:29:47;26.30;43.50
14755;DHT22;7469;50.906;6.952;2022-07-01T14:32:23;26.10;43.90
14755;DHT22;7469;50.906;6.952;2022-07-01T14:34:54;25.90;44.30
14755;DHT22;7469;50.906;6.952;2022-07-01T14:37:22;25.60;44.60
14755;DHT22;7469;50.906;6.952;2022-07-01T14:39:50;25.50;44.90
14755;DHT22;7469;50.906;6.952;2022-07-01T14:42:23;25.40;44.80
14755;DHT22;7469;50.906;6.952;2022-07-01T14:44:51;25.30;45.00
14755;DHT22;7469;50.906;6.952;2022-07-01T14:47:19;25.60;45.20
14755;DHT22;7469;50.906;6.952;2022-07-01T14:49:49;26.00;45.10
14755;DHT22;7469;50.906;6.952;2022-07-01T14:52:18;26.00;44.70
14755;DHT22;7469;50.906;6.952;2022-07-01T14:54:46;26.00;45.00
14755;DHT22;7469;50.906;6.952;2022-07-01T14:57:14;25.90;45.20
14755;DHT22;7469;50.906;6.952;2022-07-01T14:59:42;25.80;45.30
14755;DHT22;7469;50.906;6.952;2022-07-01T15:02:10;25.70;45.50
14755;DHT22;7469;50.906;6.952;2022-07-01T15:04:38;25.90;45.50
14755;DHT22;7469;50.906;6.952;2022-07-01T15:07:09;26.10;45.70
14755;DHT22;7469;50.906;6.952;2022-07-01T15:09:37;26.20;45.30
14755;DHT22;7469;50.906;6.952;2022-07-01T15:12:05;26.40;45.10
14755;DHT22;7469;50.906;6.952;2022-07-01T15:14:33;26.60;44.80
14755;DHT22;7469;50.906;6.952;2022-07-01T15:17:02;26.60;44.60
14755;DHT22;7469;50.906;6.952;2022-07-01T15:19:30;26.40;44.50
14755;DHT22;7469;50.906;6.952;2022-07-01T15:21:58;26.20;44.50
14755;DHT22;7469;50.906;6.952;2022-07-01T15:24:27;26.10;44.60
14755;DHT22;7469;50.906;6.952;2022-07-01T15:26:55;26.00;45.10
14755;DHT22;7469;50.906;6.952;2022-07-01T15:29:23;25.90;45.30
14755;DHT22;7469;50.906;6.952;2022-07-01T15:31:51;26.00;45.20
14755;DHT22;7469;50.906;6.952;2022-07-01T15:34:19;26.20;44.70
14755;DHT22;7469;50.906;6.952;2022-07-01T15:36:48;26.20;44.00
14755;DHT22;7469;50.906;6.952;2022-07-01T15:39:16;25.70;43.50
14755;DHT22;7469;50.906;6.952;2022-07-01T15:41:45;25.40;43.90
14755;DHT22;7469;50.906;6.952;2022-07-01T15:44:13;25.40;44.30
14755;DHT22;7469;50.906;6.952;2022-07-01T15:46:41;25.60;44.30
14755;DHT22;7469;50.906;6.952;2022-07-01T15:49:10;25.80;43.80
14755;DHT22;7469;50.906;6.952;2022-07-01T15:51:39;25.90;43.40
14755;DHT22;7469;50.906;6.952;2022-07-01T15:54:08;26.10;42.80
14755;DHT22;7469;50.906;6.952;2022-07-01T15:56:38;26.20;42.70
14755;DHT22;7469;50.906;6.952;2022-07-01T15:59:07;26.20;42.60
14755;DHT22;7469;50.906;6.952;2022-07-01T16:01:35;26.30;42.70
14755;DHT22;7469;50.906;6.952;2022-07-01T16:04:03;26.30;42.60
14755;DHT22;7469;50.906;6.952;2022-07-01T16:06:32;26.20;42.60